sensor_id;sensor_type;location;lat;lon;timestamp;P1;durP1;ratioP1;P2;durP2;ratioP2
11541;SDS011;5827;49.482;7.716;2023-02-28T00:00:53;2.33;;;1.80;;
11541;SDS011;5827;49.482;7.716;2023-02-28T00:02:55;1.90;;;1.80;;
11541;SDS011;5827;49.482;7.716;2023-02-28T00:04:56;2.40;;;1.73;;
11541;SDS011;5827;49.482;7.716;2023-02-28T00:07:01;1.80;;;1.70;;
11541;SDS011;5827;49.482;7.716;2023-02-28T00:09:02;2.50;;;2.10;;
11541;SDS011;5827;49.482;7.716;2023-02-28T00:11:04;3.00;;;1.90;;
11541;SDS011;5827;49.482;7.716;2023-02-28T00:13:08;1.97;;;1.80;;
11541;SDS011;5827;49.482;7.716;2023-02-28T00:15:11;2.07;;;1.77;;
11541;SDS011;5827;49.482;7.716;2023-02-28T00:17:12;2.30;;;2.10;;
11541;SDS011;5827;49.482;7.716;2023-02-28T00:19:14;3.50;;;2.10;;
11541;SDS011;5827;49.482;7.716;2023-02-28T00:21:16;2.07;;;1.70;;
11541;SDS011;5827;49.482;7.716;2023-02-28T00:23:18;1.90;;;1.70;;
11541;SDS011;5827;49.482;7.716;2023-02-28T00:25:22;2.37;;;2.00;;
11541;SDS011;5827;49.482;7.716;2023-02-28T00:27:25;2.43;;;2.23;;
11541;SDS011;5827;49.482;7.716;2023-02-28T00:29:26;2.87;;;2.23;;
11541;SDS011;5827;49.482;7.716;2023-02-28T00:31:29;2.20;;;1.90;;
11541;SDS011;5827;49.482;7.716;2023-02-28T00:33:31;2.40;;;2.20;;
11541;SDS011;5827;49.482;7.716;2023-02-28T00:35:32;2.50;;;2.27;;
11541;SDS011;5827;49.482;7.716;2023-02-28T00:37:34;2.67;;;2.10;;
11541;SDS011;5827;49.482;7.716;2023-02-28T00:39:36;2.50;;;2.20;;
11541;SDS011;5827;49.482;7.716;2023-02-28T00:41:38;2.17;;;1.97;;
11541;SDS011;5827;49.482;7.716;2023-02-28T00:43:40;3.80;;;2.40;;
11541;SDS011;5827;49.482;7.716;2023-02-28T00:45:41;2.40;;;2.20;;
11541;SDS011;5827;49.482;7.716;2023-02-28T00:47:44;2.53;;;2.10;;
11541;SDS011;5827;49.482;7.716;2023-02-28T00:49:49;2.83;;;2.23;;
11541;SDS011;5827;49.482;7.716;2023-02-28T00:51:51;4.07;;;2.30;;
11541;SDS011;5827;49.482;7.716;2023-02-28T00:53:53;2.90;;;2.20;;
11541;SDS011;5827;49.482;7.716;2023-02-28T00:55:55;4.07;;;2.40;;
11541;SDS011;5827;49.482;7.716;2023-02-28T00:57:56;3.23;;;2.50;;
11541;SDS011;5827;49.482;7.716;2023-02-28T00:59:58;3.63;;;2.40;;
11541;SDS011;5827;49.482;7.716;2023-02-28T01:01:59;4.00;;;2.93;;
11541;SDS011;5827;49.482;7.716;2023-02-28T01:04:02;4.50;;;2.70;;
11541;SDS011;5827;49.482;7.716;2023-02-28T01:06:04;4.70;;;2.97;;
11541;SDS011;5827;49.482;7.716;2023-02-28T01:08:06;4.67;;;3.13;;
11541;SDS011;5827;49.482;7.716;2023-02-28T01:10:09;4.23;;;2.90;;
11541;SDS011;5827;49.482;7.716;2023-02-28T01:12:11;4.23;;;3.10;;
11541;SDS011;5827;49.482;7.716;2023-02-28T01:14:13;3.13;;;2.83;;
11541;SDS011;5827;49.482;7.716;2023-02-28T01:16:16;4.30;;;2.80;;
11541;SDS011;5827;49.482;7.716;2023-02-28T01:18:18;2.97;;;2.60;;
11541;SDS011;5827;49.482;7.716;2023-02-28T01:20:21;3.20;;;2.90;;
11541;SDS011;5827;49.482;7.716;2023-02-28T01:22:23;2.93;;;2.57;;
11541;SDS011;5827;49.482;7.716;2023-02-28T01:24:24;3.80;;;2.30;;
11541;SDS011;5827;49.482;7.716;2023-02-28T01:26:26;2.60;;;2.40;;
11541;SDS011;5827;49.482;7.716;2023-02-28T01:28:28;2.47;;;2.27;;
11541;SDS011;5827;49.482;7.716;2023-02-28T01:30:30;2.93;;;2.60;;
11541;SDS011;5827;49.482;7.716;2023-02-28T01:32:31;3.17;;;2.60;;
11541;SDS011;5827;49.482;7.716;2023-02-28T01:34:33;3.83;;;2.50;;
11541;SDS011;5827;49.482;7.716;2023-02-28T01:36:36;3.37;;;2.40;;
11541;SDS011;5827;49.482;7.716;2023-02-28T01:38:37;3.17;;;2.87;;
11541;SDS011;5827;49.482;7.716;2023-02-28T01:40:39;3.77;;;2.80;;
11541;SDS011;5827;49.482;7.716;2023-02-28T01:42:41;4.80;;;2.67;;
11541;SDS011;5827;49.482;7.716;2023-02-28T01:44:56;2.97;;;2.67;;
11541;SDS011;5827;49.482;7.716;2023-02-28T01:47:00;3.63;;;2.67;;
11541;SDS011;5827;49.482;7.716;2023-02-28T01:49:04;3.53;;;2.30;;
11541;SDS011;5827;49.482;7.716;2023-02-28T01:51:10;2.80;;;2.60;;
11541;SDS011;5827;49.482;7.716;2023-02-28T01:53:17;2.83;;;2.60;;
11541;SDS011;5827;49.482;7.716;2023-02-28T01:55:22;3.33;;;2.57;;
11541;SDS011;5827;49.482;7.716;2023-02-28T01:57:29;4.50;;;3.27;;
11541;SDS011;5827;49.482;7.716;2023-02-28T01:59:38;3.23;;;2.93;;
11541;SDS011;5827;49.482;7.716;2023-02-28T02:01:46;4.23;;;2.80;;
11541;SDS011;5827;49.482;7.716;2023-02-28T02:03:47;4.27;;;3.10;;
11541;SDS011;5827;49.482;7.716;2023-02-28T02:05:55;3.10;;;2.80;;
11541;SDS011;5827;49.482;7.716;2023-02-28T02:07:58;3.33;;;2.50;;
11541;SDS011;5827;49.482;7.716;2023-02-28T02:10:10;3.70;;;2.97;;
11541;SDS011;5827;49.482;7.716;2023-02-28T02:12:17;4.50;;;3.13;;
11541;SDS011;5827;49.482;7.716;2023-02-28T02:14:31;4.27;;;3.00;;
11541;SDS011;5827;49.482;7.716;2023-02-28T02:16:46;3.27;;;2.97;;
11541;SDS011;5827;49.482;7.716;2023-02-28T02:18:59;3.50;;;3.10;;
11541;SDS011;5827;49.482;7.716;2023-02-28T02:24:15;3.60;;;3.17;;
11541;SDS011;5827;49.482;7.716;2023-02-28T02:29:22;3.83;;;3.23;;
11541;SDS011;5827;49.482;7.716;2023-02-28T02:34:39;4.93;;;2.93;;
11541;SDS011;5827;49.482;7.716;2023-02-28T02:36:45;4.87;;;3.27;;
11541;SDS011;5827;49.482;7.716;2023-02-28T02:38:53;3.60;;;3.30;;
11541;SDS011;5827;49.482;7.716;2023-02-28T02:41:04;4.37;;;3.30;;
11541;SDS011;5827;49.482;7.716;2023-02-28T02:43:12;5.30;;;3.47;;
11541;SDS011;5827;49.482;7.716;2023-02-28T02:45:21;4.33;;;3.00;;
11541;SDS011;5827;49.482;7.716;2023-02-28T02:47:27;3.40;;;3.10;;
11541;SDS011;5827;49.482;7.716;2023-02-28T02:49:32;3.53;;;2.90;;
11541;SDS011;5827;49.482;7.716;2023-02-28T02:51:36;3.10;;;2.80;;
11541;SDS011;5827;49.482;7.716;2023-02-28T02:53:42;3.77;;;2.93;;
11541;SDS011;5827;49.482;7.716;2023-02-28T02:55:49;3.33;;;3.03;;
11541;SDS011;5827;49.482;7.716;2023-02-28T02:57:55;5.30;;;3.30;;
11541;SDS011;5827;49.482;7.716;2023-02-28T03:00:02;3.37;;;2.90;;
11541;SDS011;5827;49.482;7.716;2023-02-28T03:02:09;4.40;;;3.17;;
11541;SDS011;5827;49.482;7.716;2023-02-28T03:04:16;4.27;;;3.03;;
11541;SDS011;5827;49.482;7.716;2023-02-28T03:06:21;3.20;;;2.87;;
11541;SDS011;5827;49.482;7.716;2023-02-28T03:08:24;3.83;;;3.07;;
11541;SDS011;5827;49.482;7.716;2023-02-28T03:10:28;3.40;;;2.87;;
11541;SDS011;5827;49.482;7.716;2023-02-28T03:12:39;4.40;;;3.50;;
11541;SDS011;5827;49.482;7.716;2023-02-28T03:14:50;4.70;;;3.40;;
11541;SDS011;5827;49.482;7.716;2023-02-28T03:17:12;3.40;;;2.80;;
11541;SDS011;5827;49.482;7.716;2023-02-28T03:19:25;5.30;;;3.13;;
11541;SDS011;5827;49.482;7.716;2023-02-28T03:21:36;4.13;;;3.20;;
11541;SDS011;5827;49.482;7.716;2023-02-28T03:23:44;4.33;;;3.23;;
11541;SDS011;5827;49.482;7.716;2023-02-28T03:25:56;3.33;;;3.03;;
11541;SDS011;5827;49.482;7.716;2023-02-28T03:28:03;5.80;;;3.20;;
11541;SDS011;5827;49.482;7.716;2023-02-28T03:30:10;3.63;;;2.93;;
11541;SDS011;5827;49.482;7.716;2023-02-28T03:32:21;3.30;;;2.67;;
11541;SDS011;5827;49.482;7.716;2023-02-28T03:34:28;3.60;;;3.00;;
11541;SDS011;5827;49.482;7.716;2023-02-28T03:36:35;4.30;;;3.20;;
11541;SDS011;5827;49.482;7.716;2023-02-28T03:38:45;4.93;;;3.20;;
11541;SDS011;5827;49.482;7.716;2023-02-28T03:40:55;5.80;;;3.27;;
11541;SDS011;5827;49.482;7.716;2023-02-28T03:43:02;4.77;;;3.40;;
11541;SDS011;5827;49.482;7.716;2023-02-28T03:45:10;3.57;;;3.10;;
11541;SDS011;5827;49.482;7.716;2023-02-28T03:47:16;4.73;;;3.00;;
11541;SDS011;5827;49.482;7.716;2023-02-28T03:49:20;3.50;;;3.20;;
11541;SDS011;5827;49.482;7.716;2023-02-28T03:51:25;3.57;;;2.87;;
11541;SDS011;5827;49.482;7.716;2023-02-28T03:53:30;5.13;;;3.47;;
11541;SDS011;5827;49.482;7.716;2023-02-28T03:55:37;4.23;;;2.80;;
11541;SDS011;5827;49.482;7.716;2023-02-28T03:57:43;4.67;;;3.27;;
11541;SDS011;5827;49.482;7.716;2023-02-28T03:59:56;5.53;;;3.53;;
11541;SDS011;5827;49.482;7.716;2023-02-28T04:02:04;5.03;;;3.57;;
11541;SDS011;5827;49.482;7.716;2023-02-28T04:04:06;13.07;;;8.33;;
11541;SDS011;5827;49.482;7.716;2023-02-28T04:06:12;4.90;;;4.20;;
11541;SDS011;5827;49.482;7.716;2023-02-28T04:08:17;5.03;;;4.17;;
11541;SDS011;5827;49.482;7.716;2023-02-28T04:10:19;6.23;;;4.43;;
11541;SDS011;5827;49.482;7.716;2023-02-28T04:12:22;5.90;;;4.40;;
11541;SDS011;5827;49.482;7.716;2023-02-28T04:14:24;3.87;;;3.47;;
11541;SDS011;5827;49.482;7.716;2023-02-28T04:16:26;4.73;;;3.93;;
11541;SDS011;5827;49.482;7.716;2023-02-28T04:18:28;3.77;;;3.37;;
11541;SDS011;5827;49.482;7.716;2023-02-28T04:20:29;5.67;;;3.47;;
11541;SDS011;5827;49.482;7.716;2023-02-28T04:22:31;4.57;;;3.70;;
11541;SDS011;5827;49.482;7.716;2023-02-28T04:24:32;4.77;;;3.50;;
11541;SDS011;5827;49.482;7.716;2023-02-28T04:26:35;4.50;;;3.70;;
11541;SDS011;5827;49.482;7.716;2023-02-28T04:28:38;4.77;;;3.73;;
11541;SDS011;5827;49.482;7.716;2023-02-28T04:30:40;5.63;;;4.13;;
11541;SDS011;5827;49.482;7.716;2023-02-28T04:32:41;5.07;;;4.37;;
11541;SDS011;5827;49.482;7.716;2023-02-28T04:34:43;5.83;;;3.87;;
11541;SDS011;5827;49.482;7.716;2023-02-28T04:36:45;4.30;;;3.90;;
11541;SDS011;5827;49.482;7.716;2023-02-28T04:38:48;4.47;;;4.07;;
11541;SDS011;5827;49.482;7.716;2023-02-28T04:40:50;4.03;;;3.57;;
11541;SDS011;5827;49.482;7.716;2023-02-28T04:42:52;5.23;;;4.53;;
11541;SDS011;5827;49.482;7.716;2023-02-28T04:44:55;3.97;;;3.50;;
11541;SDS011;5827;49.482;7.716;2023-02-28T04:46:56;4.27;;;3.77;;
11541;SDS011;5827;49.482;7.716;2023-02-28T04:48:58;5.13;;;4.27;;
11541;SDS011;5827;49.482;7.716;2023-02-28T04:50:59;5.50;;;4.23;;
11541;SDS011;5827;49.482;7.716;2023-02-28T04:53:02;4.63;;;4.07;;
11541;SDS011;5827;49.482;7.716;2023-02-28T04:55:04;7.07;;;4.10;;
11541;SDS011;5827;49.482;7.716;2023-02-28T04:57:06;5.13;;;4.20;;
11541;SDS011;5827;49.482;7.716;2023-02-28T04:59:08;4.87;;;4.30;;
11541;SDS011;5827;49.482;7.716;2023-02-28T05:01:18;5.30;;;4.40;;
11541;SDS011;5827;49.482;7.716;2023-02-28T05:03:21;4.67;;;4.20;;
11541;SDS011;5827;49.482;7.716;2023-02-28T05:05:23;6.23;;;4.53;;
11541;SDS011;5827;49.482;7.716;2023-02-28T05:07:24;5.03;;;3.90;;
11541;SDS011;5827;49.482;7.716;2023-02-28T05:09:26;5.70;;;4.40;;
11541;SDS011;5827;49.482;7.716;2023-02-28T05:11:28;6.40;;;4.27;;
11541;SDS011;5827;49.482;7.716;2023-02-28T05:13:34;4.87;;;4.20;;
11541;SDS011;5827;49.482;7.716;2023-02-28T05:15:36;4.83;;;4.20;;
11541;SDS011;5827;49.482;7.716;2023-02-28T05:17:39;4.17;;;3.50;;
11541;SDS011;5827;49.482;7.716;2023-02-28T05:19:41;5.03;;;4.13;;
11541;SDS011;5827;49.482;7.716;2023-02-28T05:21:48;5.23;;;4.00;;
11541;SDS011;5827;49.482;7.716;2023-02-28T05:23:51;7.20;;;4.70;;
11541;SDS011;5827;49.482;7.716;2023-02-28T05:25:53;4.83;;;4.37;;
11541;SDS011;5827;49.482;7.716;2023-02-28T05:27:55;4.30;;;3.90;;
11541;SDS011;5827;49.482;7.716;2023-02-28T05:29:56;5.10;;;4.20;;
11541;SDS011;5827;49.482;7.716;2023-02-28T05:31:59;5.73;;;4.77;;
11541;SDS011;5827;49.482;7.716;2023-02-28T05:34:02;5.57;;;4.90;;
11541;SDS011;5827;49.482;7.716;2023-02-28T05:36:05;5.50;;;4.43;;
11541;SDS011;5827;49.482;7.716;2023-02-28T05:38:07;6.90;;;4.77;;
11541;SDS011;5827;49.482;7.716;2023-02-28T05:40:09;6.57;;;4.70;;
11541;SDS011;5827;49.482;7.716;2023-02-28T05:42:12;6.10;;;4.77;;
11541;SDS011;5827;49.482;7.716;2023-02-28T05:44:13;4.90;;;4.40;;
11541;SDS011;5827;49.482;7.716;2023-02-28T05:46:17;5.83;;;4.73;;
11541;SDS011;5827;49.482;7.716;2023-02-28T05:48:19;5.27;;;4.77;;
11541;SDS011;5827;49.482;7.716;2023-02-28T05:50:22;7.03;;;4.83;;
11541;SDS011;5827;49.482;7.716;2023-02-28T05:52:23;5.80;;;5.17;;
11541;SDS011;5827;49.482;7.716;2023-02-28T05:54:25;10.00;;;5.00;;
11541;SDS011;5827;49.482;7.716;2023-02-28T05:56:27;5.67;;;4.97;;
11541;SDS011;5827;49.482;7.716;2023-02-28T05:58:29;6.10;;;4.87;;
11541;SDS011;5827;49.482;7.716;2023-02-28T06:00:31;5.80;;;5.13;;
11541;SDS011;5827;49.482;7.716;2023-02-28T06:02:33;6.60;;;4.77;;
11541;SDS011;5827;49.482;7.716;2023-02-28T06:04:34;8.43;;;5.13;;
11541;SDS011;5827;49.482;7.716;2023-02-28T06:06:37;7.37;;;4.80;;
11541;SDS011;5827;49.482;7.716;2023-02-28T06:08:39;5.87;;;5.00;;
11541;SDS011;5827;49.482;7.716;2023-02-28T06:10:40;5.37;;;4.67;;
11541;SDS011;5827;49.482;7.716;2023-02-28T06:12:42;6.17;;;5.30;;
11541;SDS011;5827;49.482;7.716;2023-02-28T06:14:43;7.73;;;4.97;;
11541;SDS011;5827;49.482;7.716;2023-02-28T06:16:45;5.67;;;4.93;;
11541;SDS011;5827;49.482;7.716;2023-02-28T06:18:48;9.30;;;5.03;;
11541;SDS011;5827;49.482;7.716;2023-02-28T06:20:52;5.77;;;4.60;;
11541;SDS011;5827;49.482;7.716;2023-02-28T06:22:55;6.13;;;4.93;;
11541;SDS011;5827;49.482;7.716;2023-02-28T06:24:58;5.53;;;4.77;;
11541;SDS011;5827;49.482;7.716;2023-02-28T06:27:00;5.57;;;4.97;;
11541;SDS011;5827;49.482;7.716;2023-02-28T06:29:04;6.87;;;5.57;;
11541;SDS011;5827;49.482;7.716;2023-02-28T06:31:07;5.73;;;5.13;;
11541;SDS011;5827;49.482;7.716;2023-02-28T06:33:09;6.83;;;4.70;;
11541;SDS011;5827;49.482;7.716;2023-02-28T06:35:11;5.23;;;4.73;;
11541;SDS011;5827;49.482;7.716;2023-02-28T06:37:13;5.70;;;4.73;;
11541;SDS011;5827;49.482;7.716;2023-02-28T06:39:17;6.13;;;4.80;;
11541;SDS011;5827;49.482;7.716;2023-02-28T06:41:19;6.87;;;5.00;;
11541;SDS011;5827;49.482;7.716;2023-02-28T06:43:20;8.80;;;4.90;;
11541;SDS011;5827;49.482;7.716;2023-02-28T06:45:22;6.50;;;4.70;;
11541;SDS011;5827;49.482;7.716;2023-02-28T06:47:26;6.50;;;4.70;;
11541;SDS011;5827;49.482;7.716;2023-02-28T06:49:28;8.17;;;7.17;;
11541;SDS011;5827;49.482;7.716;2023-02-28T06:51:29;8.53;;;6.50;;
11541;SDS011;5827;49.482;7.716;2023-02-28T06:53:31;8.57;;;6.30;;
11541;SDS011;5827;49.482;7.716;2023-02-28T06:55:34;11.77;;;8.13;;
11541;SDS011;5827;49.482;7.716;2023-02-28T06:57:36;18.60;;;11.17;;
11541;SDS011;5827;49.482;7.716;2023-02-28T06:59:37;8.50;;;6.03;;
11541;SDS011;5827;49.482;7.716;2023-02-28T07:01:39;7.93;;;5.57;;
11541;SDS011;5827;49.482;7.716;2023-02-28T07:03:41;18.17;;;11.83;;
11541;SDS011;5827;49.482;7.716;2023-02-28T07:05:43;8.53;;;5.77;;
11541;SDS011;5827;49.482;7.716;2023-02-28T07:07:44;7.73;;;5.23;;
11541;SDS011;5827;49.482;7.716;2023-02-28T07:09:47;19.20;;;11.90;;
11541;SDS011;5827;49.482;7.716;2023-02-28T07:11:50;7.47;;;5.10;;
11541;SDS011;5827;49.482;7.716;2023-02-28T07:13:51;5.97;;;4.70;;
11541;SDS011;5827;49.482;7.716;2023-02-28T07:15:53;5.50;;;4.47;;
11541;SDS011;5827;49.482;7.716;2023-02-28T07:17:56;7.33;;;5.20;;
11541;SDS011;5827;49.482;7.716;2023-02-28T07:19:57;6.90;;;5.30;;
11541;SDS011;5827;49.482;7.716;2023-02-28T07:21:59;4.67;;;4.20;;
11541;SDS011;5827;49.482;7.716;2023-02-28T07:24:01;4.63;;;4.03;;
11541;SDS011;5827;49.482;7.716;2023-02-28T07:26:03;5.73;;;4.23;;
11541;SDS011;5827;49.482;7.716;2023-02-28T07:28:06;4.60;;;4.20;;
11541;SDS011;5827;49.482;7.716;2023-02-28T07:30:08;6.10;;;4.40;;
11541;SDS011;5827;49.482;7.716;2023-02-28T07:32:11;5.70;;;4.37;;
11541;SDS011;5827;49.482;7.716;2023-02-28T07:34:12;7.07;;;4.10;;
11541;SDS011;5827;49.482;7.716;2023-02-28T07:36:15;5.53;;;4.33;;
11541;SDS011;5827;49.482;7.716;2023-02-28T07:38:19;6.33;;;4.60;;
11541;SDS011;5827;49.482;7.716;2023-02-28T07:40:21;6.27;;;4.27;;
11541;SDS011;5827;49.482;7.716;2023-02-28T07:42:22;6.07;;;4.83;;
11541;SDS011;5827;49.482;7.716;2023-02-28T07:44:25;5.27;;;4.33;;
11541;SDS011;5827;49.482;7.716;2023-02-28T07:46:26;5.23;;;4.10;;
11541;SDS011;5827;49.482;7.716;2023-02-28T07:48:29;5.50;;;3.93;;
11541;SDS011;5827;49.482;7.716;2023-02-28T07:50:30;6.23;;;4.10;;
11541;SDS011;5827;49.482;7.716;2023-02-28T07:52:32;5.20;;;4.10;;
11541;SDS011;5827;49.482;7.716;2023-02-28T07:54:34;5.00;;;4.30;;
11541;SDS011;5827;49.482;7.716;2023-02-28T07:56:35;6.20;;;4.27;;
11541;SDS011;5827;49.482;7.716;2023-02-28T07:58:37;6.17;;;4.60;;
11541;SDS011;5827;49.482;7.716;2023-02-28T08:00:40;5.87;;;4.23;;
11541;SDS011;5827;49.482;7.716;2023-02-28T08:02:41;4.97;;;4.47;;
11541;SDS011;5827;49.482;7.716;2023-02-28T08:04:43;6.27;;;4.13;;
11541;SDS011;5827;49.482;7.716;2023-02-28T08:06:45;5.27;;;4.10;;
11541;SDS011;5827;49.482;7.716;2023-02-28T08:08:47;5.10;;;3.90;;
11541;SDS011;5827;49.482;7.716;2023-02-28T08:10:49;6.20;;;3.83;;
11541;SDS011;5827;49.482;7.716;2023-02-28T08:12:51;4.40;;;4.00;;
11541;SDS011;5827;49.482;7.716;2023-02-28T08:14:52;6.23;;;3.50;;
11541;SDS011;5827;49.482;7.716;2023-02-28T08:16:55;6.37;;;4.10;;
11541;SDS011;5827;49.482;7.716;2023-02-28T08:18:57;4.63;;;3.70;;
11541;SDS011;5827;49.482;7.716;2023-02-28T08:20:58;4.67;;;3.73;;
11541;SDS011;5827;49.482;7.716;2023-02-28T08:23:00;6.53;;;4.27;;
11541;SDS011;5827;49.482;7.716;2023-02-28T08:25:01;4.90;;;4.40;;
11541;SDS011;5827;49.482;7.716;2023-02-28T08:27:03;5.00;;;4.17;;
11541;SDS011;5827;49.482;7.716;2023-02-28T08:29:04;5.03;;;3.70;;
11541;SDS011;5827;49.482;7.716;2023-02-28T08:31:07;3.63;;;3.30;;
11541;SDS011;5827;49.482;7.716;2023-02-28T08:33:11;8.53;;;3.60;;
11541;SDS011;5827;49.482;7.716;2023-02-28T08:35:12;4.57;;;3.63;;
11541;SDS011;5827;49.482;7.716;2023-02-28T08:37:14;4.63;;;3.90;;
11541;SDS011;5827;49.482;7.716;2023-02-28T08:39:16;4.77;;;3.80;;
11541;SDS011;5827;49.482;7.716;2023-02-28T08:41:17;5.20;;;4.27;;
11541;SDS011;5827;49.482;7.716;2023-02-28T08:43:19;5.53;;;4.33;;
11541;SDS011;5827;49.482;7.716;2023-02-28T08:45:20;5.83;;;4.17;;
11541;SDS011;5827;49.482;7.716;2023-02-28T08:47:22;4.37;;;3.50;;
11541;SDS011;5827;49.482;7.716;2023-02-28T08:49:25;4.80;;;3.97;;
11541;SDS011;5827;49.482;7.716;2023-02-28T08:51:28;5.90;;;3.83;;
11541;SDS011;5827;49.482;7.716;2023-02-28T08:53:31;7.47;;;3.90;;
11541;SDS011;5827;49.482;7.716;2023-02-28T08:55:33;7.33;;;3.97;;
11541;SDS011;5827;49.482;7.716;2023-02-28T08:57:34;5.30;;;3.80;;
11541;SDS011;5827;49.482;7.716;2023-02-28T08:59:36;5.03;;;4.00;;
11541;SDS011;5827;49.482;7.716;2023-02-28T09:01:37;4.17;;;3.27;;
11541;SDS011;5827;49.482;7.716;2023-02-28T09:03:41;5.03;;;4.00;;
11541;SDS011;5827;49.482;7.716;2023-02-28T09:05:52;6.53;;;4.50;;
11541;SDS011;5827;49.482;7.716;2023-02-28T09:07:55;6.03;;;4.00;;
11541;SDS011;5827;49.482;7.716;2023-02-28T09:09:59;4.50;;;4.00;;
11541;SDS011;5827;49.482;7.716;2023-02-28T09:12:01;4.83;;;4.07;;
11541;SDS011;5827;49.482;7.716;2023-02-28T09:14:03;5.97;;;3.60;;
11541;SDS011;5827;49.482;7.716;2023-02-28T09:16:06;5.63;;;3.83;;
11541;SDS011;5827;49.482;7.716;2023-02-28T09:18:13;6.57;;;4.03;;
11541;SDS011;5827;49.482;7.716;2023-02-28T09:20:15;4.53;;;3.87;;
11541;SDS011;5827;49.482;7.716;2023-02-28T09:22:18;6.30;;;4.37;;
11541;SDS011;5827;49.482;7.716;2023-02-28T09:24:19;6.37;;;4.47;;
11541;SDS011;5827;49.482;7.716;2023-02-28T09:26:22;5.87;;;4.47;;
11541;SDS011;5827;49.482;7.716;2023-02-28T09:28:25;4.87;;;4.13;;
11541;SDS011;5827;49.482;7.716;2023-02-28T09:30:26;5.57;;;4.20;;
11541;SDS011;5827;49.482;7.716;2023-02-28T09:32:28;4.97;;;4.17;;
11541;SDS011;5827;49.482;7.716;2023-02-28T09:34:30;5.23;;;4.03;;
11541;SDS011;5827;49.482;7.716;2023-02-28T09:36:31;4.97;;;4.40;;
11541;SDS011;5827;49.482;7.716;2023-02-28T09:38:34;5.23;;;4.30;;
11541;SDS011;5827;49.482;7.716;2023-02-28T09:40:37;5.10;;;4.37;;
11541;SDS011;5827;49.482;7.716;2023-02-28T09:42:41;4.63;;;4.03;;
11541;SDS011;5827;49.482;7.716;2023-02-28T09:44:43;5.47;;;4.23;;
11541;SDS011;5827;49.482;7.716;2023-02-28T09:46:48;7.70;;;4.57;;
11541;SDS011;5827;49.482;7.716;2023-02-28T09:48:53;6.83;;;4.67;;
11541;SDS011;5827;49.482;7.716;2023-02-28T09:50:59;7.93;;;5.47;;
11541;SDS011;5827;49.482;7.716;2023-02-28T09:53:10;5.17;;;4.67;;
11541;SDS011;5827;49.482;7.716;2023-02-28T09:55:21;6.47;;;4.90;;
11541;SDS011;5827;49.482;7.716;2023-02-28T09:57:29;7.40;;;5.10;;
11541;SDS011;5827;49.482;7.716;2023-02-28T09:59:38;5.67;;;4.70;;
11541;SDS011;5827;49.482;7.716;2023-02-28T10:01:47;8.90;;;5.07;;
11541;SDS011;5827;49.482;7.716;2023-02-28T10:03:57;6.00;;;5.33;;
11541;SDS011;5827;49.482;7.716;2023-02-28T10:06:03;7.97;;;5.10;;
11541;SDS011;5827;49.482;7.716;2023-02-28T10:08:11;9.03;;;5.83;;
11541;SDS011;5827;49.482;7.716;2023-02-28T10:10:21;7.87;;;5.27;;
11541;SDS011;5827;49.482;7.716;2023-02-28T10:12:26;7.93;;;5.10;;
11541;SDS011;5827;49.482;7.716;2023-02-28T10:14:31;7.33;;;5.63;;
11541;SDS011;5827;49.482;7.716;2023-02-28T10:16:35;6.57;;;5.50;;
11541;SDS011;5827;49.482;7.716;2023-02-28T10:18:42;6.17;;;5.57;;
11541;SDS011;5827;49.482;7.716;2023-02-28T10:20:47;10.47;;;5.77;;
11541;SDS011;5827;49.482;7.716;2023-02-28T10:22:52;6.70;;;5.40;;
11541;SDS011;5827;49.482;7.716;2023-02-28T10:24:58;6.70;;;5.10;;
11541;SDS011;5827;49.482;7.716;2023-02-28T10:27:06;7.40;;;4.77;;
11541;SDS011;5827;49.482;7.716;2023-02-28T10:29:15;5.93;;;4.77;;
11541;SDS011;5827;49.482;7.716;2023-02-28T10:31:17;6.90;;;5.63;;
11541;SDS011;5827;49.482;7.716;2023-02-28T10:33:22;5.90;;;5.40;;
11541;SDS011;5827;49.482;7.716;2023-02-28T10:35:25;6.37;;;5.17;;
11541;SDS011;5827;49.482;7.716;2023-02-28T10:37:27;6.27;;;5.00;;
11541;SDS011;5827;49.482;7.716;2023-02-28T10:39:36;6.87;;;5.30;;
11541;SDS011;5827;49.482;7.716;2023-02-28T10:41:42;7.80;;;5.40;;
11541;SDS011;5827;49.482;7.716;2023-02-28T10:43:45;6.83;;;5.30;;
11541;SDS011;5827;49.482;7.716;2023-02-28T10:45:57;6.40;;;5.33;;
11541;SDS011;5827;49.482;7.716;2023-02-28T10:48:03;7.93;;;5.17;;
11541;SDS011;5827;49.482;7.716;2023-02-28T10:50:10;6.83;;;5.60;;
11541;SDS011;5827;49.482;7.716;2023-02-28T10:52:36;7.40;;;5.70;;
11541;SDS011;5827;49.482;7.716;2023-02-28T10:54:39;6.47;;;5.57;;
11541;SDS011;5827;49.482;7.716;2023-02-28T10:56:41;6.80;;;5.33;;
11541;SDS011;5827;49.482;7.716;2023-02-28T10:58:52;6.97;;;5.03;;
11541;SDS011;5827;49.482;7.716;2023-02-28T11:00:55;7.80;;;6.30;;
11541;SDS011;5827;49.482;7.716;2023-02-28T11:02:57;7.70;;;5.70;;
11541;SDS011;5827;49.482;7.716;2023-02-28T11:04:59;7.50;;;5.70;;
11541;SDS011;5827;49.482;7.716;2023-02-28T11:07:01;8.13;;;6.17;;
11541;SDS011;5827;49.482;7.716;2023-02-28T11:09:05;6.33;;;5.50;;
11541;SDS011;5827;49.482;7.716;2023-02-28T11:11:19;6.63;;;5.93;;
11541;SDS011;5827;49.482;7.716;2023-02-28T11:13:25;7.83;;;5.60;;
11541;SDS011;5827;49.482;7.716;2023-02-28T11:15:30;9.33;;;6.37;;
11541;SDS011;5827;49.482;7.716;2023-02-28T11:17:34;8.37;;;6.40;;
11541;SDS011;5827;49.482;7.716;2023-02-28T11:19:38;9.07;;;6.03;;
11541;SDS011;5827;49.482;7.716;2023-02-28T11:21:47;7.47;;;6.13;;
11541;SDS011;5827;49.482;7.716;2023-02-28T11:23:54;6.90;;;5.90;;
11541;SDS011;5827;49.482;7.716;2023-02-28T11:26:02;7.27;;;5.90;;
11541;SDS011;5827;49.482;7.716;2023-02-28T11:28:23;7.93;;;6.17;;
11541;SDS011;5827;49.482;7.716;2023-02-28T11:30:33;6.53;;;5.77;;
11541;SDS011;5827;49.482;7.716;2023-02-28T11:32:36;8.10;;;6.20;;
11541;SDS011;5827;49.482;7.716;2023-02-28T11:34:38;8.53;;;6.60;;
11541;SDS011;5827;49.482;7.716;2023-02-28T11:36:41;9.97;;;6.67;;
11541;SDS011;5827;49.482;7.716;2023-02-28T11:38:44;8.47;;;6.50;;
11541;SDS011;5827;49.482;7.716;2023-02-28T11:40:48;10.37;;;7.17;;
11541;SDS011;5827;49.482;7.716;2023-02-28T11:43:05;9.97;;;6.60;;
11541;SDS011;5827;49.482;7.716;2023-02-28T11:45:20;8.33;;;6.60;;
11541;SDS011;5827;49.482;7.716;2023-02-28T11:47:31;8.37;;;6.50;;
11541;SDS011;5827;49.482;7.716;2023-02-28T11:49:41;8.70;;;6.93;;
11541;SDS011;5827;49.482;7.716;2023-02-28T11:51:50;8.10;;;6.60;;
11541;SDS011;5827;49.482;7.716;2023-02-28T11:54:09;9.20;;;7.17;;
11541;SDS011;5827;49.482;7.716;2023-02-28T11:56:25;8.03;;;6.20;;
11541;SDS011;5827;49.482;7.716;2023-02-28T11:58:33;8.50;;;6.20;;
11541;SDS011;5827;49.482;7.716;2023-02-28T12:00:50;7.10;;;6.20;;
11541;SDS011;5827;49.482;7.716;2023-02-28T12:03:06;9.30;;;6.20;;
11541;SDS011;5827;49.482;7.716;2023-02-28T12:05:23;7.83;;;6.63;;
11541;SDS011;5827;49.482;7.716;2023-02-28T12:07:33;7.10;;;6.10;;
11541;SDS011;5827;49.482;7.716;2023-02-28T12:09:46;8.97;;;6.30;;
11541;SDS011;5827;49.482;7.716;2023-02-28T12:12:02;6.93;;;5.90;;
11541;SDS011;5827;49.482;7.716;2023-02-28T12:14:27;6.10;;;5.50;;
11541;SDS011;5827;49.482;7.716;2023-02-28T12:16:49;7.17;;;5.90;;
11541;SDS011;5827;49.482;7.716;2023-02-28T12:19:05;8.17;;;6.10;;
11541;SDS011;5827;49.482;7.716;2023-02-28T12:21:15;7.43;;;5.80;;
11541;SDS011;5827;49.482;7.716;2023-02-28T12:23:26;6.37;;;5.77;;
11541;SDS011;5827;49.482;7.716;2023-02-28T12:25:47;7.43;;;6.33;;
11541;SDS011;5827;49.482;7.716;2023-02-28T12:27:56;7.73;;;5.93;;
11541;SDS011;5827;49.482;7.716;2023-02-28T12:29:58;8.07;;;5.50;;
11541;SDS011;5827;49.482;7.716;2023-02-28T12:32:05;6.80;;;5.67;;
11541;SDS011;5827;49.482;7.716;2023-02-28T12:34:13;6.20;;;5.60;;
11541;SDS011;5827;49.482;7.716;2023-02-28T12:36:20;7.70;;;6.03;;
11541;SDS011;5827;49.482;7.716;2023-02-28T12:38:24;7.90;;;6.47;;
11541;SDS011;5827;49.482;7.716;2023-02-28T12:40:30;7.07;;;6.27;;
11541;SDS011;5827;49.482;7.716;2023-02-28T12:42:42;7.13;;;6.33;;
11541;SDS011;5827;49.482;7.716;2023-02-28T12:44:48;8.30;;;6.23;;
11541;SDS011;5827;49.482;7.716;2023-02-28T12:46:54;7.37;;;6.57;;
11541;SDS011;5827;49.482;7.716;2023-02-28T12:49:00;8.33;;;6.70;;
11541;SDS011;5827;49.482;7.716;2023-02-28T12:51:08;7.87;;;6.53;;